sensor_id;sensor_type;location;lat;lon;timestamp;pressure;altitude;pressure_sealevel;temperature;humidity
11099;BME280;12223;42.650;23.364;2022-11-11T00:01:54;95805.56;;;7.00;100.00
11099;BME280;12223;42.650;23.364;2022-11-11T00:04:21;95781.97;;;6.92;100.00
11099;BME280;12223;42.650;23.364;2022-11-11T00:06:50;95757.41;;;6.77;100.00
11099;BME280;12223;42.650;23.364;2022-11-11T00:09:18;95754.59;;;7.09;100.00
11099;BME280;12223;42.650;23.364;2022-11-11T00:11:44;95761.53;;;7.02;100.00
11099;BME280;12223;42.650;23.364;2022-11-11T00:14:11;95776.81;;;7.07;100.00
11099;BME280;12223;42.650;23.364;2022-11-11T00:16:38;95779.06;;;7.10;100.00
11099;BME280;12223;42.650;23.364;2022-11-11T00:19:23;95776.94;;;7.13;100.00
11099;BME280;12223;42.650;23.364;2022-11-11T00:22:18;95774.66;;;7.02;100.00
11099;BME280;12223;42.650;23.364;2022-11-11T00:25:03;95773.19;;;7.08;100.00
11099;BME280;12223;42.650;23.364;2022-11-11T00:27:33;95778.13;;;7.03;100.00
11099;BME280;12223;42.650;23.364;2022-11-11T00:30:00;95783.09;;;6.90;100.00
11099;BME280;12223;42.650;23.364;2022-11-11T00:32:27;95820.97;;;7.03;100.00
11099;BME280;12223;42.650;23.364;2022-11-11T00:35:19;95821.50;;;6.91;100.00
11099;BME280;12223;42.650;23.364;2022-11-11T00:38:09;95819.38;;;6.94;100.00
11099;BME280;12223;42.650;23.364;2022-11-11T00:40:56;95814.84;;;6.80;100.00
11099;BME280;12223;42.650;23.364;2022-11-11T00:43:23;95780.59;;;6.65;100.00
11099;BME280;12223;42.650;23.364;2022-11-11T00:45:49;95795.16;;;6.76;100.00
11099;BME280;12223;42.650;23.364;2022-11-11T00:48:16;95780.78;;;6.64;100.00
11099;BME280;12223;42.650;23.364;2022-11-11T00:51:09;95761.22;;;6.66;100.00
11099;BME280;12223;42.650;23.364;2022-11-11T00:53:37;95749.72;;;6.75;100.00
11099;BME280;12223;42.650;23.364;2022-11-11T00:56:05;95748.63;;;6.93;100.00
11099;BME280;12223;42.650;23.364;2022-11-11T00:58:32;95740.75;;;6.93;100.00
11099;BME280;12223;42.650;23.364;2022-11-11T01:00:59;95733.28;;;6.81;100.00
11099;BME280;12223;42.650;23.364;2022-11-11T01:03:27;95715.97;;;6.95;100.00
11099;BME280;12223;42.650;23.364;2022-11-11T01:05:53;95708.31;;;7.31;100.00
11099;BME280;12223;42.650;23.364;2022-11-11T01:08:25;95694.75;;;7.42;100.00
11099;BME280;12223;42.650;23.364;2022-11-11T01:10:53;95669.72;;;7.69;100.00
11099;BME280;12223;42.650;23.364;2022-11-11T01:13:21;95673.63;;;7.88;100.00
11099;BME280;12223;42.650;23.364;2022-11-11T01:15:49;95691.59;;;7.99;100.00
11099;BME280;12223;42.650;23.364;2022-11-11T01:18:19;95696.06;;;8.28;100.00
11099;BME280;12223;42.650;23.364;2022-11-11T01:20:46;95690.09;;;8.34;100.00
11099;BME280;12223;42.650;23.364;2022-11-11T01:23:13;95702.22;;;8.50;100.00
11099;BME280;12223;42.650;23.364;2022-11-11T01:25:41;95713.75;;;8.63;100.00
11099;BME280;12223;42.650;23.364;2022-11-11T01:28:09;95723.78;;;8.74;100.00
11099;BME280;12223;42.650;23.364;2022-11-11T01:30:36;95712.75;;;8.50;100.00
11099;BME280;12223;42.650;23.364;2022-11-11T01:33:03;95707.56;;;8.56;100.00
11099;BME280;12223;42.650;23.364;2022-11-11T01:35:30;95721.50;;;8.86;100.00
11099;BME280;12223;42.650;23.364;2022-11-11T01:37:58;95716.22;;;8.86;100.00
11099;BME280;12223;42.650;23.364;2022-11-11T01:40:25;95727.03;;;8.91;100.00
11099;BME280;12223;42.650;23.364;2022-11-11T01:42:55;95725.91;;;9.00;100.00
11099;BME280;12223;42.650;23.364;2022-11-11T01:45:54;95729.28;;;8.94;100.00
11099;BME280;12223;42.650;23.364;2022-11-11T01:48:30;95710.97;;;8.86;100.00
11099;BME280;12223;42.650;23.364;2022-11-11T01:51:25;95724.75;;;9.03;100.00
11099;BME280;12223;42.650;23.364;2022-11-11T01:53:57;95736.47;;;8.85;100.00
11099;BME280;12223;42.650;23.364;2022-11-11T01:56:26;95740.66;;;8.95;100.00
11099;BME280;12223;42.650;23.364;2022-11-11T01:58:55;95747.84;;;8.86;100.00
11099;BME280;12223;42.650;23.364;2022-11-11T02:01:25;95739.75;;;8.87;100.00
11099;BME280;12223;42.650;23.364;2022-11-11T02:03:54;95732.84;;;9.22;100.00
11099;BME280;12223;42.650;23.364;2022-11-11T02:06:45;95742.00;;;9.26;100.00
11099;BME280;12223;42.650;23.364;2022-11-11T02:09:12;95752.25;;;9.00;100.00
11099;BME280;12223;42.650;23.364;2022-11-11T02:11:40;95751.03;;;9.17;100.00
11099;BME280;12223;42.650;23.364;2022-11-11T02:14:25;95750.75;;;9.27;100.00
11099;BME280;12223;42.650;23.364;2022-11-11T02:17:03;95756.75;;;9.21;100.00
11099;BME280;12223;42.650;23.364;2022-11-11T02:19:38;95763.00;;;9.35;100.00
11099;BME280;12223;42.650;23.364;2022-11-11T02:22:10;95749.75;;;9.28;100.00
11099;BME280;12223;42.650;23.364;2022-11-11T02:24:40;95755.44;;;9.32;100.00
11099;BME280;12223;42.650;23.364;2022-11-11T02:27:09;95768.63;;;9.32;100.00
11099;BME280;12223;42.650;23.364;2022-11-11T02:29:37;95757.09;;;9.33;100.00
11099;BME280;12223;42.650;23.364;2022-11-11T02:32:05;95752.97;;;9.30;100.00
11099;BME280;12223;42.650;23.364;2022-11-11T02:34:33;95759.34;;;9.36;100.00
11099;BME280;12223;42.650;23.364;2022-11-11T02:37:02;95747.09;;;9.28;100.00
11099;BME280;12223;42.650;23.364;2022-11-11T02:39:30;95740.25;;;9.34;100.00
11099;BME280;12223;42.650;23.364;2022-11-11T02:42:01;95740.56;;;9.24;100.00
11099;BME280;12223;42.650;23.364;2022-11-11T02:44:34;95742.78;;;9.42;100.00
11099;BME280;12223;42.650;23.364;2022-11-11T02:47:01;95737.81;;;9.32;100.00
11099;BME280;12223;42.650;23.364;2022-11-11T02:49:28;95738.00;;;9.31;100.00
11099;BME280;12223;42.650;23.364;2022-11-11T02:51:55;95732.34;;;9.34;100.00
11099;BME280;12223;42.650;23.364;2022-11-11T02:54:23;95734.41;;;9.38;100.00
11099;BME280;12223;42.650;23.364;2022-11-11T02:56:49;95736.13;;;9.46;100.00
11099;BME280;12223;42.650;23.364;2022-11-11T02:59:37;95745.03;;;9.45;100.00
11099;BME280;12223;42.650;23.364;2022-11-11T03:02:05;95743.47;;;9.50;100.00
11099;BME280;12223;42.650;23.364;2022-11-11T03:04:33;95769.34;;;9.40;100.00
11099;BME280;12223;42.650;23.364;2022-11-11T03:07:03;95780.66;;;9.19;100.00
11099;BME280;12223;42.650;23.364;2022-11-11T03:09:30;95803.72;;;8.81;100.00
11099;BME280;12223;42.650;23.364;2022-11-11T03:11:57;95813.16;;;8.61;100.00
11099;BME280;12223;42.650;23.364;2022-11-11T03:14:24;95801.72;;;8.02;100.00
11099;BME280;12223;42.650;23.364;2022-11-11T03:16:52;95787.50;;;8.11;100.00
11099;BME280;12223;42.650;23.364;2022-11-11T03:19:37;95798.06;;;8.03;100.00
11099;BME280;12223;42.650;23.364;2022-11-11T03:22:03;95800.41;;;7.83;100.00
11099;BME280;12223;42.650;23.364;2022-11-11T03:24:30;95791.41;;;7.78;100.00
11099;BME280;12223;42.650;23.364;2022-11-11T03:27:11;95769.97;;;7.66;100.00
11099;BME280;12223;42.650;23.364;2022-11-11T03:29:38;95780.69;;;7.64;100.00
11099;BME280;12223;42.650;23.364;2022-11-11T03:32:07;95756.59;;;7.53;100.00
11099;BME280;12223;42.650;23.364;2022-11-11T03:34:34;95754.78;;;7.53;100.00
11099;BME280;12223;42.650;23.364;2022-11-11T03:37:03;95743.50;;;7.67;100.00
11099;BME280;12223;42.650;23.364;2022-11-11T03:39:48;95761.41;;;7.87;100.00
11099;BME280;12223;42.650;23.364;2022-11-11T03:42:15;95756.81;;;7.89;100.00
11099;BME280;12223;42.650;23.364;2022-11-11T03:44:42;95756.16;;;7.87;100.00
11099;BME280;12223;42.650;23.364;2022-11-11T03:47:10;95745.94;;;8.06;100.00
11099;BME280;12223;42.650;23.364;2022-11-11T03:49:37;95745.88;;;8.15;100.00
11099;BME280;12223;42.650;23.364;2022-11-11T03:52:04;95753.75;;;8.29;100.00
11099;BME280;12223;42.650;23.364;2022-11-11T03:54:31;95742.41;;;8.14;100.00
11099;BME280;12223;42.650;23.364;2022-11-11T03:56:57;95777.44;;;8.29;100.00
11099;BME280;12223;42.650;23.364;2022-11-11T03:59:38;95782.81;;;8.36;100.00
11099;BME280;12223;42.650;23.364;2022-11-11T04:02:06;95741.53;;;8.22;100.00
11099;BME280;12223;42.650;23.364;2022-11-11T04:04:53;95741.88;;;8.63;100.00
11099;BME280;12223;42.650;23.364;2022-11-11T04:07:37;95714.81;;;8.69;100.00
11099;BME280;12223;42.650;23.364;2022-11-11T04:10:21;95708.88;;;8.81;100.00
11099;BME280;12223;42.650;23.364;2022-11-11T04:12:50;95703.66;;;9.03;100.00
11099;BME280;12223;42.650;23.364;2022-11-11T04:15:35;95705.28;;;9.25;100.00
11099;BME280;12223;42.650;23.364;2022-11-11T04:18:19;95679.50;;;9.42;100.00
11099;BME280;12223;42.650;23.364;2022-11-11T04:21:08;95672.13;;;9.58;100.00
11099;BME280;12223;42.650;23.364;2022-11-11T04:23:54;95669.75;;;9.91;100.00
11099;BME280;12223;42.650;23.364;2022-11-11T04:26:21;95672.84;;;10.01;100.00
11099;BME280;12223;42.650;23.364;2022-11-11T04:28:46;95691.34;;;10.08;100.00
11099;BME280;12223;42.650;23.364;2022-11-11T04:31:31;95695.31;;;10.19;100.00
11099;BME280;12223;42.650;23.364;2022-11-11T04:33:57;95712.81;;;10.26;100.00
11099;BME280;12223;42.650;23.364;2022-11-11T04:36:25;95704.47;;;10.23;100.00
11099;BME280;12223;42.650;23.364;2022-11-11T04:38:52;95689.41;;;10.17;100.00
11099;BME280;12223;42.650;23.364;2022-11-11T04:41:36;95710.63;;;10.30;100.00
11099;BME280;12223;42.650;23.364;2022-11-11T04:44:03;95716.41;;;10.53;100.00
11099;BME280;12223;42.650;23.364;2022-11-11T04:46:48;95726.59;;;10.56;100.00
11099;BME280;12223;42.650;23.364;2022-11-11T04:49:15;95740.69;;;10.70;100.00
11099;BME280;12223;42.650;23.364;2022-11-11T04:51:43;95762.41;;;10.65;100.00
11099;BME280;12223;42.650;23.364;2022-11-11T04:54:27;95768.31;;;10.67;100.00
11099;BME280;12223;42.650;23.364;2022-11-11T04:57:14;95750.56;;;10.55;100.00
11099;BME280;12223;42.650;23.364;2022-11-11T04:59:40;95757.56;;;10.75;100.00
11099;BME280;12223;42.650;23.364;2022-11-11T05:02:07;95775.91;;;10.83;100.00
11099;BME280;12223;42.650;23.364;2022-11-11T05:04:51;95787.75;;;10.94;100.00
11099;BME280;12223;42.650;23.364;2022-11-11T05:07:19;95789.59;;;11.00;100.00
11099;BME280;12223;42.650;23.364;2022-11-11T05:10:04;95789.25;;;11.10;100.00
11099;BME280;12223;42.650;23.364;2022-11-11T05:12:31;95808.59;;;11.17;100.00
11099;BME280;12223;42.650;23.364;2022-11-11T05:14:58;95803.91;;;11.12;100.00
11099;BME280;12223;42.650;23.364;2022-11-11T05:17:42;95796.78;;;11.06;100.00
11099;BME280;12223;42.650;23.364;2022-11-11T05:20:34;95811.03;;;11.12;100.00
11099;BME280;12223;42.650;23.364;2022-11-11T05:23:20;95823.78;;;11.02;100.00
11099;BME280;12223;42.650;23.364;2022-11-11T05:26:07;95819.94;;;11.04;100.00
11099;BME280;12223;42.650;23.364;2022-11-11T05:28:33;95823.50;;;10.90;100.00
11099;BME280;12223;42.650;23.364;2022-11-11T05:31:00;95820.38;;;10.73;100.00
11099;BME280;12223;42.650;23.364;2022-11-11T05:33:26;95818.19;;;10.83;100.00
11099;BME280;12223;42.650;23.364;2022-11-11T05:35:53;95827.19;;;10.96;100.00
11099;BME280;12223;42.650;23.364;2022-11-11T05:38:21;95837.53;;;10.91;100.00
11099;BME280;12223;42.650;23.364;2022-11-11T05:40:48;95841.38;;;10.88;100.00
11099;BME280;12223;42.650;23.364;2022-11-11T05:43:15;95848.31;;;10.89;100.00
11099;BME280;12223;42.650;23.364;2022-11-11T05:45:44;95822.91;;;10.54;100.00
11099;BME280;12223;42.650;23.364;2022-11-11T05:48:11;95819.81;;;10.50;100.00
11099;BME280;12223;42.650;23.364;2022-11-11T05:50:38;95816.66;;;10.33;100.00
11099;BME280;12223;42.650;23.364;2022-11-11T05:53:09;95791.78;;;10.21;100.00
11099;BME280;12223;42.650;23.364;2022-11-11T05:55:37;95817.34;;;10.42;100.00
11099;BME280;12223;42.650;23.364;2022-11-11T05:58:04;95815.78;;;10.54;100.00
11099;BME280;12223;42.650;23.364;2022-11-11T06:00:30;95831.06;;;10.59;100.00
11099;BME280;12223;42.650;23.364;2022-11-11T06:03:01;95841.09;;;10.42;100.00
11099;BME280;12223;42.650;23.364;2022-11-11T06:05:28;95849.22;;;10.40;100.00
11099;BME280;12223;42.650;23.364;2022-11-11T06:07:55;95854.41;;;10.55;100.00
11099;BME280;12223;42.650;23.364;2022-11-11T06:10:25;95856.75;;;10.71;100.00
11099;BME280;12223;42.650;23.364;2022-11-11T06:12:59;95891.13;;;10.50;100.00
11099;BME280;12223;42.650;23.364;2022-11-11T06:15:32;95909.50;;;10.16;100.00
11099;BME280;12223;42.650;23.364;2022-11-11T06:18:00;95910.47;;;10.29;100.00
11099;BME280;12223;42.650;23.364;2022-11-11T06:20:27;95918.69;;;10.20;100.00
11099;BME280;12223;42.650;23.364;2022-11-11T06:22:54;95908.41;;;10.10;100.00
11099;BME280;12223;42.650;23.364;2022-11-11T06:25:25;95912.41;;;10.21;100.00
11099;BME280;12223;42.650;23.364;2022-11-11T06:28:11;95894.59;;;10.08;100.00
11099;BME280;12223;42.650;23.364;2022-11-11T06:30:38;95893.53;;;10.02;100.00
11099;BME280;12223;42.650;23.364;2022-11-11T06:33:06;95881.53;;;10.21;100.00
11099;BME280;12223;42.650;23.364;2022-11-11T06:35:34;95860.47;;;10.06;100.00
11099;BME280;12223;42.650;23.364;2022-11-11T06:38:02;95805.94;;;9.92;100.00
11099;BME280;12223;42.650;23.364;2022-11-11T06:40:29;95862.34;;;10.34;100.00
11099;BME280;12223;42.650;23.364;2022-11-11T06:42:56;95870.44;;;10.54;100.00
11099;BME280;12223;42.650;23.364;2022-11-11T06:45:25;95884.53;;;10.39;100.00
11099;BME280;12223;42.650;23.364;2022-11-11T06:47:52;95879.78;;;10.28;100.00
11099;BME280;12223;42.650;23.364;2022-11-11T06:50:19;95874.88;;;10.25;100.00
11099;BME280;12223;42.650;23.364;2022-11-11T06:52:47;95875.00;;;10.66;100.00
11099;BME280;12223;42.650;23.364;2022-11-11T06:55:14;95880.94;;;10.47;100.00
11099;BME280;12223;42.650;23.364;2022-11-11T06:57:41;95889.75;;;10.54;100.00
11099;BME280;12223;42.650;23.364;2022-11-11T07:00:09;95885.88;;;10.57;100.00
11099;BME280;12223;42.650;23.364;2022-11-11T07:02:37;95891.72;;;10.73;100.00
11099;BME280;12223;42.650;23.364;2022-11-11T07:05:05;95902.75;;;10.83;100.00
11099;BME280;12223;42.650;23.364;2022-11-11T07:07:32;95900.44;;;11.02;100.00
11099;BME280;12223;42.650;23.364;2022-11-11T07:10:00;95911.13;;;10.87;100.00
11099;BME280;12223;42.650;23.364;2022-11-11T07:12:31;95907.81;;;10.78;100.00
11099;BME280;12223;42.650;23.364;2022-11-11T07:14:58;95903.88;;;10.68;100.00
11099;BME280;12223;42.650;23.364;2022-11-11T07:17:25;95879.66;;;10.36;100.00
11099;BME280;12223;42.650;23.364;2022-11-11T07:19:53;95879.50;;;10.72;100.00
11099;BME280;12223;42.650;23.364;2022-11-11T07:22:20;95895.72;;;10.69;100.00
11099;BME280;12223;42.650;23.364;2022-11-11T07:24:47;95914.09;;;10.77;100.00
11099;BME280;12223;42.650;23.364;2022-11-11T07:27:14;95918.97;;;10.74;100.00
11099;BME280;12223;42.650;23.364;2022-11-11T07:29:41;95927.06;;;10.72;100.00
11099;BME280;12223;42.650;23.364;2022-11-11T07:32:07;95933.84;;;10.81;100.00
11099;BME280;12223;42.650;23.364;2022-11-11T07:34:34;95940.56;;;10.84;100.00
11099;BME280;12223;42.650;23.364;2022-11-11T07:37:02;95948.88;;;11.09;100.00
11099;BME280;12223;42.650;23.364;2022-11-11T07:39:29;95961.47;;;11.07;100.00
11099;BME280;12223;42.650;23.364;2022-11-11T07:41:56;95963.16;;;11.14;100.00
11099;BME280;12223;42.650;23.364;2022-11-11T07:44:23;95974.00;;;11.26;100.00
11099;BME280;12223;42.650;23.364;2022-11-11T07:46:50;95989.13;;;11.39;100.00
11099;BME280;12223;42.650;23.364;2022-11-11T07:49:17;95988.50;;;11.30;100.00
11099;BME280;12223;42.650;23.364;2022-11-11T07:51:44;95997.06;;;11.39;100.00
11099;BME280;12223;42.650;23.364;2022-11-11T07:54:12;95995.00;;;11.34;100.00
11099;BME280;12223;42.650;23.364;2022-11-11T07:56:39;95993.28;;;11.48;100.00
11099;BME280;12223;42.650;23.364;2022-11-11T07:59:06;95998.91;;;11.38;100.00
11099;BME280;12223;42.650;23.364;2022-11-11T08:01:33;96014.16;;;11.36;100.00
11099;BME280;12223;42.650;23.364;2022-11-11T08:04:00;96005.34;;;11.29;100.00
11099;BME280;12223;42.650;23.364;2022-11-11T08:06:27;95986.53;;;11.11;100.00
11099;BME280;12223;42.650;23.364;2022-11-11T08:08:54;96000.69;;;11.31;100.00
11099;BME280;12223;42.650;23.364;2022-11-11T08:11:22;95997.34;;;11.16;100.00
11099;BME280;12223;42.650;23.364;2022-11-11T08:14:03;96006.31;;;11.21;100.00
11099;BME280;12223;42.650;23.364;2022-11-11T08:16:30;96009.84;;;11.28;100.00
11099;BME280;12223;42.650;23.364;2022-11-11T08:18:57;96017.06;;;11.20;100.00
11099;BME280;12223;42.650;23.364;2022-11-11T08:21:24;96019.03;;;11.05;100.00
11099;BME280;12223;42.650;23.364;2022-11-11T08:23:51;96017.97;;;10.99;100.00
11099;BME280;12223;42.650;23.364;2022-11-11T08:26:19;96013.00;;;11.17;100.00
11099;BME280;12223;42.650;23.364;2022-11-11T08:28:50;96020.69;;;11.40;100.00
11099;BME280;12223;42.650;23.364;2022-11-11T08:31:17;96027.63;;;11.41;100.00
11099;BME280;12223;42.650;23.364;2022-11-11T08:33:44;96036.13;;;11.37;100.00
11099;BME280;12223;42.650;23.364;2022-11-11T08:36:12;96037.81;;;11.44;100.00
11099;BME280;12223;42.650;23.364;2022-11-11T08:38:42;96032.63;;;11.29;100.00
11099;BME280;12223;42.650;23.364;2022-11-11T08:41:12;96037.66;;;11.52;100.00
11099;BME280;12223;42.650;23.364;2022-11-11T08:43:38;96040.78;;;11.62;100.00
11099;BME280;12223;42.650;23.364;2022-11-11T08:46:07;96045.47;;;11.67;100.00
11099;BME280;12223;42.650;23.364;2022-11-11T08:48:36;96045.31;;;11.68;100.00
11099;BME280;12223;42.650;23.364;2022-11-11T08:51:03;96012.88;;;11.60;100.00
11099;BME280;12223;42.650;23.364;2022-11-11T08:53:29;96031.56;;;11.86;100.00
11099;BME280;12223;42.650;23.364;2022-11-11T08:56:00;96050.34;;;11.98;100.00
11099;BME280;12223;42.650;23.364;2022-11-11T08:58:26;96011.38;;;11.79;100.00
11099;BME280;12223;42.650;23.364;2022-11-11T09:00:53;96059.19;;;12.12;100.00
11099;BME280;12223;42.650;23.364;2022-11-11T09:03:22;96042.50;;;12.18;100.00
11099;BME280;12223;42.650;23.364;2022-11-11T09:05:50;96048.69;;;12.38;100.00
11099;BME280;12223;42.650;23.364;2022-11-11T09:08:16;96060.72;;;12.47;100.00
11099;BME280;12223;42.650;23.364;2022-11-11T09:10:43;96046.44;;;12.41;100.00
11099;BME280;12223;42.650;23.364;2022-11-11T09:13:10;96045.00;;;12.32;100.00
11099;BME280;12223;42.650;23.364;2022-11-11T09:15:37;96054.59;;;12.40;100.00
11099;BME280;12223;42.650;23.364;2022-11-11T09:18:04;96063.69;;;12.18;100.00
11099;BME280;12223;42.650;23.364;2022-11-11T09:20:32;96056.41;;;12.26;100.00
11099;BME280;12223;42.650;23.364;2022-11-11T09:22:59;96063.13;;;12.29;100.00
11099;BME280;12223;42.650;23.364;2022-11-11T09:25:26;96063.59;;;12.39;100.00
11099;BME280;12223;42.650;23.364;2022-11-11T09:27:53;96043.38;;;12.31;100.00
11099;BME280;12223;42.650;23.364;2022-11-11T09:30:25;96059.53;;;12.56;100.00
11099;BME280;12223;42.650;23.364;2022-11-11T09:32:52;96063.38;;;12.47;100.00
11099;BME280;12223;42.650;23.364;2022-11-11T09:35:20;96056.47;;;12.53;100.00
11099;BME280;12223;42.650;23.364;2022-11-11T09:37:58;96058.09;;;12.54;100.00
11099;BME280;12223;42.650;23.364;2022-11-11T09:40:41;96053.63;;;12.61;100.00
11099;BME280;12223;42.650;23.364;2022-11-11T09:43:22;96046.94;;;12.78;100.00
11099;BME280;12223;42.650;23.364;2022-11-11T09:46:02;96051.41;;;12.58;100.00
11099;BME280;12223;42.650;23.364;2022-11-11T09:48:42;96051.03;;;12.80;100.00
11099;BME280;12223;42.650;23.364;2022-11-11T09:51:21;96048.41;;;12.94;100.00
11099;BME280;12223;42.650;23.364;2022-11-11T09:53:53;96012.91;;;12.88;100.00
11099;BME280;12223;42.650;23.364;2022-11-11T09:56:24;96021.88;;;13.00;100.00
11099;BME280;12223;42.650;23.364;2022-11-11T09:58:57;96034.94;;;12.88;100.00
11099;BME280;12223;42.650;23.364;2022-11-11T10:01:32;96032.28;;;12.95;100.00
11099;BME280;12223;42.650;23.364;2022-11-11T10:04:12;96036.16;;;12.99;100.00
11099;BME280;12223;42.650;23.364;2022-11-11T10:06:44;96037.19;;;12.98;100.00
11099;BME280;12223;42.650;23.364;2022-11-11T10:09:20;96037.03;;;13.19;100.00
11099;BME280;12223;42.650;23.364;2022-11-11T10:11:56;96033.13;;;13.28;100.00
11099;BME280;12223;42.650;23.364;2022-11-11T10:14:30;96042.09;;;13.47;100.00
11099;BME280;12223;42.650;23.364;2022-11-11T10:17:04;96041.88;;;13.55;100.00
11099;BME280;12223;42.650;23.364;2022-11-11T10:19:44;96046.97;;;13.77;100.00
11099;BME280;12223;42.650;23.364;2022-11-11T10:22:21;96048.63;;;13.58;100.00
11099;BME280;12223;42.650;23.364;2022-11-11T10:24:56;96035.25;;;12.46;100.00
11099;BME280;12223;42.650;23.364;2022-11-11T10:27:25;96029.19;;;12.78;100.00
11099;BME280;12223;42.650;23.364;2022-11-11T10:29:53;96044.06;;;12.73;100.00
11099;BME280;12223;42.650;23.364;2022-11-11T10:32:22;96027.00;;;13.02;100.00
11099;BME280;12223;42.650;23.364;2022-11-11T10:34:51;96036.56;;;13.03;100.00
11099;BME280;12223;42.650;23.364;2022-11-11T10:37:20;96032.09;;;13.23;100.00
11099;BME280;12223;42.650;23.364;2022-11-11T10:40:04;96029.25;;;13.31;100.00
11099;BME280;12223;42.650;23.364;2022-11-11T10:42:33;96034.75;;;13.29;100.00
11099;BME280;12223;42.650;23.364;2022-11-11T10:45:00;96038.84;;;13.39;100.00
11099;BME280;12223;42.650;23.364;2022-11-11T10:47:42;96031.09;;;13.37;100.00
11099;BME280;12223;42.650;23.364;2022-11-11T10:50:15;96036.00;;;13.34;100.00
11099;BME280;12223;42.650;23.364;2022-11-11T10:52:49;96026.19;;;13.34;100.00
11099;BME280;12223;42.650;23.364;2022-11-11T10:55:21;96032.53;;;13.33;100.00
11099;BME280;12223;42.650;23.364;2022-11-11T10:57:53;96017.44;;;13.14;100.00
11099;BME280;12223;42.650;23.364;2022-11-11T11:00:24;96026.41;;;13.26;100.00
11099;BME280;12223;42.650;23.364;2022-11-11T11:02:56;96036.78;;;13.41;100.00
11099;BME280;12223;42.650;23.364;2022-11-11T11:05:26;96029.25;;;13.44;100.00
11099;BME280;12223;42.650;23.364;2022-11-11T11:07:58;96026.38;;;13.46;100.00
11099;BME280;12223;42.650;23.364;2022-11-11T11:10:33;96020.66;;;13.42;99.49
11099;BME280;12223;42.650;23.364;2022-11-11T11:13:12;96018.41;;;13.52;97.76
11099;BME280;12223;42.650;23.364;2022-11-11T11:15:44;95922.97;;;12.86;96.41
11099;BME280;12223;42.650;23.364;2022-11-11T11:18:15;96013.94;;;13.53;95.18
11099;BME280;12223;42.650;23.364;2022-11-11T11:20:54;96008.78;;;13.64;94.60
11099;BME280;12223;42.650;23.364;2022-11-11T11:23:35;96000.53;;;13.86;91.77
11099;BME280;12223;42.650;23.364;2022-11-11T11:26:04;96011.47;;;13.51;92.16
11099;BME280;12223;42.650;23.364;2022-11-11T11:28:32;96007.97;;;13.71;91.21
11099;BME280;12223;42.650;23.364;2022-11-11T11:31:00;96001.78;;;13.90;89.24
11099;BME280;12223;42.650;23.364;2022-11-11T11:34:10;96000.38;;;13.74;87.70
11099;BME280;12223;42.650;23.364;2022-11-11T11:36:58;95839.28;;;13.10;85.55
11099;BME280;12223;42.650;23.364;2022-11-11T11:39:31;95995.94;;;13.61;83.18
11099;BME280;12223;42.650;23.364;2022-11-11T11:42:00;95987.00;;;13.16;87.12
11099;BME280;12223;42.650;23.364;2022-11-11T11:44:28;95985.34;;;13.48;85.08
11099;BME280;12223;42.650;23.364;2022-11-11T11:50:03;95967.84;;;13.92;77.70
11099;BME280;12223;42.650;23.364;2022-11-11T11:52:40;95970.53;;;13.79;73.92
11099;BME280;12223;42.650;23.364;2022-11-11T11:55:13;95986.59;;;13.46;76.40
11099;BME280;12223;42.650;23.364;2022-11-11T11:58:00;95987.63;;;13.32;78.63
11099;BME280;12223;42.650;23.364;2022-11-11T12:00:30;95987.81;;;13.43;79.11
11099;BME280;12223;42.650;23.364;2022-11-11T12:03:24;95993.88;;;13.63;77.44
11099;BME280;12223;42.650;23.364;2022-11-11T12:05:59;95970.03;;;13.44;77.04
11099;BME280;12223;42.650;23.364;2022-11-11T12:08:42;95987.13;;;13.61;78.08
11099;BME280;12223;42.650;23.364;2022-11-11T12:11:17;95974.88;;;13.66;77.24
11099;BME280;12223;42.650;23.364;2022-11-11T12:16:49;95969.13;;;13.76;76.77
11099;BME280;12223;42.650;23.364;2022-11-11T12:19:28;95976.66;;;13.86;76.61
11099;BME280;12223;42.650;23.364;2022-11-11T12:22:24;95972.94;;;13.93;75.99
11099;BME280;12223;42.650;23.364;2022-11-11T12:24:59;95964.38;;;13.91;76.29
11099;BME280;12223;42.650;23.364;2022-11-11T12:27:36;95973.81;;;13.81;73.71
11099;BME280;12223;42.650;23.364;2022-11-11T12:30:10;95961.19;;;13.69;75.47
11099;BME280;12223;42.650;23.364;2022-11-11T12:35:50;95966.16;;;13.53;77.43
11099;BME280;12223;42.650;23.364;2022-11-11T12:38:45;95964.75;;;13.31;78.22
11099;BME280;12223;42.650;23.364;2022-11-11T12:41:22;95965.19;;;12.95;80.61
11099;BME280;12223;42.650;23.364;2022-11-11T12:44:00;95958.88;;;12.76;82.25
11099;BME280;12223;42.650;23.364;2022-11-11T12:46:40;95954.38;;;12.70;82.17
11099;BME280;12223;42.650;23.364;2022-11-11T12:49:25;95959.69;;;12.70;83.64
11099;BME280;12223;42.650;23.364;2022-11-11T12:52:02;95959.25;;;12.86;81.52
11099;BME280;12223;42.650;23.364;2022-11-11T12:54:40;95822.47;;;11.93;82.84
11099;BME280;12223;42.650;23.364;2022-11-11T12:57:16;95950.28;;;12.87;81.62
11099;BME280;12223;42.650;23.364;2022-11-11T13:00:08;95954.56;;;12.95;81.38
11099;BME280;12223;42.650;23.364;2022-11-11T13:02:58;95958.88;;;12.89;82.77
11099;BME280;12223;42.650;23.364;2022-11-11T13:05:31;95942.13;;;12.69;83.01
11099;BME280;12223;42.650;23.364;2022-11-11T13:11:06;95963.94;;;12.44;89.75
11099;BME280;12223;42.650;23.364;2022-11-11T13:13:57;95968.19;;;12.52;90.47
11099;BME280;12223;42.650;23.364;2022-11-11T13:16:28;95962.66;;;12.34;90.46
11099;BME280;12223;42.650;23.364;2022-11-11T13:19:00;95971.41;;;12.28;92.08
11099;BME280;12223;42.650;23.364;2022-11-11T13:21:33;95976.16;;;12.39;92.27
11099;BME280;12223;42.650;23.364;2022-11-11T13:24:02;95975.09;;;12.33;91.98